Time;durP1;ratioP1;P1;durP2;ratioP2;P2;SDS_P1;SDS_P2;PMS_P1;PMS_P2;Temp;Humidity;BMP_temperature;BMP_pressure;BME280_temperature;BME280_humidity;BME280_pressure;Samples;Min_cycle;Max_cycle;Signal;HPM_P1;HPM_P2
2022/06/14 00:03:06;;;;;;;5.53;2.70;;;;;;;18.45;52.27;100531.81;5347590;32;44530;-64
2022/06/14 00:06:19;;;;;;;7.87;2.30;;;;;;;17.74;54.01;100536.59;5338081;32;35392;-71
2022/06/14 00:09:21;;;;;;;5.83;2.17;;;;;;;17.71;54.78;100552.78;5357458;32;34195;-72
2022/06/14 00:12:23;;;;;;;6.30;2.70;;;;;;;17.65;54.79;100553.16;5342419;32;33988;-64
2022/06/14 00:15:25;;;;;;;6.23;2.63;;;;;;;17.61;55.05;100541.00;5355480;32;35232;-71
2022/06/14 00:18:28;;;;;;;4.78;2.60;;;;;;;17.53;55.63;100569.88;5341887;32;44331;-64
2022/06/14 00:21:30;;;;;;;6.47;2.83;;;;;;;17.79;55.04;100563.75;5347125;32;34427;-64
2022/06/14 00:24:32;;;;;;;7.40;2.80;;;;;;;17.72;54.94;100554.47;5352400;32;34323;-64
2022/06/14 00:27:34;;;;;;;5.77;2.60;;;;;;;17.81;55.01;100566.28;5341502;32;34161;-66
2022/06/14 00:30:38;;;;;;;5.32;2.53;;;;;;;17.70;55.25;100571.41;5357565;32;35400;-74
2022/06/14 00:33:40;;;;;;;4.73;2.53;;;;;;;17.92;54.58;100577.06;5342126;32;35436;-72
2022/06/14 00:36:50;;;;;;;6.50;2.70;;;;;;;18.66;51.99;100588.88;5355362;32;34354;-64
2022/06/14 00:39:52;;;;;;;4.90;2.40;;;;;;;17.76;54.76;100597.63;5320221;32;34237;-70
2022/06/14 00:42:54;;;;;;;6.10;2.60;;;;;;;18.06;53.63;100598.28;5338888;32;33631;-71
2022/06/14 00:46:17;;;;;;;6.47;2.65;;;;;;;18.02;53.34;100606.56;5357860;32;34069;-74
2022/06/14 00:49:33;;;;;;;7.37;3.15;;;;;;;18.42;52.07;100612.72;5343003;32;35515;-72
2022/06/14 00:52:45;;;;;;;4.80;2.47;;;;;;;17.85;53.61;100621.81;5360889;32;44324;-64
2022/06/14 00:55:53;;;;;;;3.23;2.20;;;;;;;17.80;53.78;100621.28;5343680;32;34219;-72
2022/06/14 00:59:02;;;;;;;5.07;2.60;;;;;;;17.70;53.67;100627.25;5344867;32;35345;-73
2022/06/14 01:02:18;;;;;;;5.70;2.63;;;;;;;18.43;51.74;100629.53;5357714;32;46894;-71
2022/06/14 01:06:05;;;;;;;4.93;2.70;;;;;;;18.05;53.06;100631.16;5342055;32;34064;-71
2022/06/14 01:09:05;;;;;;;10.57;2.77;;;;;;;17.79;53.65;100627.53;5349466;32;34986;-70
2022/06/14 01:12:10;;;;;;;4.80;2.43;;;;;;;17.35;55.37;100626.84;5351308;32;34100;-70
2022/06/14 01:15:25;;;;;;;6.43;2.80;;;;;;;17.67;54.83;100630.97;5344309;32;34074;-72
2022/06/14 01:18:27;;;;;;;5.60;2.57;;;;;;;18.15;53.25;100636.69;5358515;32;37125;-65
2022/06/14 01:21:29;;;;;;;7.25;2.83;;;;;;;17.61;54.98;100639.34;5342213;32;35354;-65
2022/06/14 01:24:32;;;;;;;9.07;3.05;;;;;;;17.97;54.22;100645.88;5358532;32;34048;-72
2022/06/14 01:27:36;;;;;;;4.87;2.85;;;;;;;17.46;56.15;100654.47;5345295;32;35417;-65
2022/06/14 01:30:45;;;;;;;4.97;2.77;;;;;;;17.31;56.56;100666.88;5341398;32;35662;-71
2022/06/14 01:33:50;;;;;;;5.80;3.00;;;;;;;17.11;57.80;100656.66;5361009;32;34128;-65
2022/06/14 01:36:52;;;;;;;5.83;3.03;;;;;;;16.85;59.00;100657.41;5343568;32;34123;-65
2022/06/14 01:39:55;;;;;;;4.37;2.37;;;;;;;17.71;55.61;100652.88;5335192;32;33442;-67
2022/06/14 01:43:23;;;;;;;;;;;;;;;17.94;54.46;100670.03;5338955;32;43169;-65
2022/06/14 01:46:27;;;;;;;7.60;2.90;;;;;;;17.26;55.97;100653.06;5326937;32;35576;-67
2022/06/14 01:53:13;;;;;;;5.30;2.73;;;;;;;17.06;55.85;100687.94;5342735;32;35337;-72
2022/06/14 01:56:38;;;;;;;5.00;2.70;;;;;;;16.86;56.74;100694.47;5358792;32;34239;-72
2022/06/14 01:59:44;;;;;;;5.70;2.60;;;;;;;17.35;55.00;100682.66;5348741;32;34145;-65
2022/06/14 02:06:38;;;;;;;6.77;2.83;;;;;;;16.97;56.14;100680.56;5357301;32;34315;-74
2022/06/14 02:09:59;;;;;;;7.97;3.13;;;;;;;17.46;54.39;100678.38;5344065;32;34386;-65
2022/06/14 02:13:10;;;;;;;8.27;3.30;;;;;;;17.26;55.44;100670.78;5343129;32;45118;-66
2022/06/14 02:16:21;;;;;;;11.80;3.00;;;;;;;16.79;56.92;100680.72;5359276;32;34352;-65
2022/06/14 02:19:30;;;;;;;14.40;3.43;;;;;;;17.48;54.55;100684.44;5341709;32;34367;-75
2022/06/14 02:22:36;;;;;;;4.97;2.65;;;;;;;17.84;53.94;100686.59;5358735;32;44695;-73
2022/06/14 02:25:54;;;;;;;6.53;2.97;;;;;;;17.54;54.31;100685.84;5340448;32;35341;-72
2022/06/14 02:29:04;;;;;;;5.95;2.60;;;;;;;17.57;54.45;100683.00;5342848;32;45564;-66
2022/06/14 02:32:27;;;;;;;8.50;2.72;;;;;;;17.79;53.86;100683.38;5356868;32;34141;-72
2022/06/14 02:35:33;;;;;;;5.43;2.63;;;;;;;18.04;52.58;100689.78;5342520;32;46673;-66
2022/06/14 02:38:52;;;;;;;4.17;2.40;;;;;;;17.36;53.76;100693.19;5348247;32;34135;-73
2022/06/14 02:42:00;;;;;;;8.63;2.63;;;;;;;17.35;54.00;100696.78;5331116;32;34197;-64
2022/06/14 02:45:05;;;;;;;5.62;2.83;;;;;;;17.31;53.92;100690.78;5342305;32;46913;-71
2022/06/14 02:48:19;;;;;;;6.22;2.70;;;;;;;17.84;52.56;100697.22;5358372;32;34155;-66
2022/06/14 02:51:23;;;;;;;7.40;2.80;;;;;;;17.66;52.56;100705.50;5342825;32;34041;-66
2022/06/14 02:54:35;;;;;;;8.13;2.97;;;;;;;17.23;53.47;100706.38;5358568;32;35354;-66
2022/06/14 02:57:57;;;;;;;6.32;2.42;;;;;;;17.53;52.84;100708.06;5341657;32;36496;-72
2022/06/14 03:01:29;;;;;;;8.60;2.80;;;;;;;17.81;51.99;100708.03;5340619;32;44305;-72
2022/06/14 03:04:37;;;;;;;5.95;2.58;;;;;;;17.37;53.17;100709.97;5340805;32;44999;-65
2022/06/14 03:08:09;;;;;;;5.68;3.08;;;;;;;16.93;54.14;100716.19;5331799;32;35366;-64
2022/06/14 03:11:25;;;;;;;8.07;3.60;;;;;;;17.87;51.46;100712.97;5333509;32;34282;-71
2022/06/14 03:14:34;;;;;;;5.70;3.00;;;;;;;17.29;53.15;100715.75;5358569;32;44179;-64
2022/06/14 03:17:51;;;;;;;8.00;3.15;;;;;;;17.72;51.87;100721.09;5343753;32;34200;-65
2022/06/14 03:21:27;;;;;;;5.47;2.33;;;;;;;17.39;52.57;100726.66;5358096;32;34245;-66
2022/06/14 03:24:34;;;;;;;6.15;2.70;;;;;;;17.35;52.70;100726.00;5333464;32;33972;-71
2022/06/14 03:27:43;;;;;;;8.75;2.58;;;;;;;17.30;52.78;100730.75;5343558;32;34059;-71
2022/06/14 03:31:02;;;;;;;8.40;3.00;;;;;;;18.21;50.00;100721.41;5356405;32;34207;-66
2022/06/14 03:34:16;;;;;;;10.48;2.97;;;;;;;17.55;51.63;100733.59;5342690;32;46112;-64
2022/06/14 03:37:19;;;;;;;6.18;2.72;;;;;;;17.17;52.87;100738.59;5356440;32;34300;-64
2022/06/14 03:40:23;;;;;;;8.73;3.22;;;;;;;17.23;52.77;100743.53;5320183;32;35234;-64
2022/06/14 03:43:25;;;;;;;6.57;2.92;;;;;;;17.87;51.11;100733.41;5341539;32;34369;-65
2022/06/14 03:46:38;;;;;;;7.20;2.70;;;;;;;18.16;50.48;100736.81;5357643;32;44402;-65
2022/06/14 03:49:46;;;;;;;6.57;2.65;;;;;;;18.11;50.29;100728.31;5339822;32;34125;-72
2022/06/14 03:53:04;;;;;;;8.10;2.80;;;;;;;17.80;51.19;100727.63;5356742;32;36195;-64
2022/06/14 03:56:30;;;;;;;14.50;3.28;;;;;;;18.33;49.61;100731.25;5343557;32;44664;-65
2022/06/14 03:59:49;;;;;;;9.90;2.70;;;;;;;18.16;50.27;100736.81;5338998;32;47125;-64
2022/06/14 04:03:06;;;;;;;8.70;3.25;;;;;;;18.28;49.73;100745.81;5347015;32;35474;-71
2022/06/14 04:06:37;;;;;;;7.30;2.78;;;;;;;18.00;50.71;100752.06;5342895;32;34185;-73
2022/06/14 04:09:46;;;;;;;14.07;4.05;;;;;;;19.04;48.25;100753.16;5339348;32;34357;-65
2022/06/14 04:13:14;;;;;;;9.32;2.72;;;;;;;18.71;49.37;100746.50;5354580;32;35894;-71
2022/06/14 04:16:16;;;;;;;9.07;2.80;;;;;;;18.31;50.04;100762.44;5338503;32;34395;-73
2022/06/14 04:19:49;;;;;;;4.32;2.60;;;;;;;18.50;50.09;100767.41;5357539;32;35520;-71
2022/06/14 04:22:53;;;;;;;;;;;;;;;18.89;48.76;100776.37;5346787;32;34083;-65
2022/06/14 04:26:28;;;;;;;19.50;3.67;;;;;;;18.98;48.82;100774.91;5339580;32;35527;-73
2022/06/14 04:29:48;;;;;;;9.88;3.30;;;;;;;20.52;45.11;100771.94;5335616;32;35964;-72
2022/06/14 04:33:02;;;;;;;7.53;3.15;;;;;;;21.05;43.53;100772.34;5340423;32;34180;-65
2022/06/14 04:36:15;;;;;;;5.47;2.87;;;;;;;21.16;42.69;100771.53;5341599;32;44533;-73
2022/06/14 04:39:25;;;;;;;8.10;3.10;;;;;;;22.36;40.44;100778.00;5328355;32;34280;-73
2022/06/14 04:42:42;;;;;;;5.65;2.50;;;;;;;22.72;38.74;100775.91;5329846;32;45819;-71
2022/06/14 04:45:56;;;;;;;6.95;3.08;;;;;;;22.93;38.42;100778.66;5359506;32;34814;-65
2022/06/14 04:49:28;;;;;;;6.95;2.75;;;;;;;23.11;38.37;100777.06;5342242;32;44690;-72
2022/06/14 04:52:47;;;;;;;8.90;2.97;;;;;;;22.47;39.12;100785.13;5342749;32;44357;-65
2022/06/14 04:56:06;;;;;;;7.47;3.17;;;;;;;23.13;37.99;100785.84;5361875;32;34104;-72
2022/06/14 04:59:16;;;;;;;10.55;4.85;;;;;;;21.93;40.57;100794.00;5341860;32;35009;-74
2022/06/14 05:02:21;;;;;;;8.13;2.80;;;;;;;23.22;37.71;100795.78;5350316;32;34702;-65
2022/06/14 05:05:32;;;;;;;10.52;3.62;;;;;;;23.51;36.92;100795.97;5355922;32;36652;-71
2022/06/14 05:08:39;;;;;;;7.62;2.47;;;;;;;23.19;37.96;100793.37;5342442;32;44579;-65
2022/06/14 05:11:57;;;;;;;11.98;4.07;;;;;;;24.72;35.19;100800.44;5358362;32;35815;-65
2022/06/14 05:15:17;;;;;;;9.25;2.62;;;;;;;23.66;36.85;100798.31;5344121;32;44696;-72
2022/06/14 05:18:52;;;;;;;5.45;2.22;;;;;;;24.03;36.36;100802.16;5349460;32;35420;-72
2022/06/14 05:22:19;;;;;;;4.35;2.00;;;;;;;24.57;35.31;100800.84;5358102;32;35500;-71
2022/06/14 05:25:21;;;;;;;5.05;2.30;;;;;;;24.41;35.04;100805.06;5344748;32;33644;-73
2022/06/14 05:28:26;;;;;;;;;;;;;;;24.36;35.01;100812.72;5357944;32;34235;-69
2022/06/14 05:31:47;;;;;;;;;;;;;;;25.31;33.44;100807.47;5342483;32;44418;-70
2022/06/14 05:34:51;;;;;;;;;;;;;;;24.18;36.05;100809.81;5343576;32;35459;-72
2022/06/14 05:38:09;;;;;;;;;;;;;;;26.83;31.18;100807.88;5357704;32;35460;-72
2022/06/14 05:41:43;;;;;;;;;;;;;;;24.55;34.83;100816.28;5312725;32;35713;-68
2022/06/14 05:44:45;;;;;;;;;;;;;;;22.88;37.93;100818.41;5307297;32;34431;-71
2022/06/14 05:47:48;;;;;;;;;;;;;;;25.33;34.04;100814.44;5343367;32;34595;-67
2022/06/14 05:50:51;;;;;;;;;;;;;;;23.50;37.45;100820.22;5338982;32;34618;-70
2022/06/14 05:54:01;;;;;;;;;;;;;;;22.65;39.34;100823.78;5352700;32;35547;-83
2022/06/14 05:57:07;;;;;;;;;;;;;;;23.41;37.59;100823.72;5315979;32;46155;-71
2022/06/14 06:00:10;;;;;;;;;;;;;;;25.04;34.48;100817.16;5349305;32;34814;-75
2022/06/14 06:03:31;;;;;;;;;;;;;;;26.28;32.30;100821.47;5337952;32;36114;-66
2022/06/14 06:06:41;;;;;;;;;;;;;;;25.14;33.13;100822.53;5336039;32;44343;-68
2022/06/14 06:10:04;;;;;;;;;;;;;;;24.93;34.20;100838.78;5351085;32;36363;-71
2022/06/14 06:13:16;;;;;;;;;;;;;;;27.03;30.52;100823.87;5340326;32;35162;-69
2022/06/14 06:16:19;;;;;;;;;;;;;;;25.83;32.70;100835.72;5351247;32;34388;-75
2022/06/14 06:19:23;;;;;;;;;;;;;;;25.44;32.95;100840.34;5345014;32;35791;-79
2022/06/14 06:22:25;;;;;;;;;;;;;;;26.85;30.27;100840.91;5341176;32;34345;-72
2022/06/14 06:25:30;;;;;;;;;;;;;;;25.52;32.49;100840.44;5356061;32;46522;-80
2022/06/14 06:28:35;;;;;;;;;;;;;;;25.85;31.93;100843.63;5342843;32;34201;-68
2022/06/14 06:31:36;;;;;;;;;;;;;;;25.47;31.83;100849.94;5357405;32;34256;-68
2022/06/14 06:34:39;;;;;;;;;;;;;;;27.31;29.24;100841.69;5341984;32;35910;-70
2022/06/14 06:37:47;;;;;;;;;;;;;;;27.94;28.25;100841.41;5336963;32;34332;-70
2022/06/14 06:44:30;;;;;;;;;;;;;;;27.31;28.92;100847.09;5346067;32;33495;-71
2022/06/14 06:47:36;;;;;;;;;;;;;;;28.40;27.27;100850.06;5353093;32;44697;-67
2022/06/14 06:50:45;;;;;;;;;;;;;;;26.19;30.25;100854.66;5339827;32;35618;-69
2022/06/14 06:53:59;;;;;;;;;;;;;;;24.70;33.33;100848.97;5327181;32;35530;-70
2022/06/14 06:57:01;;;;;;;;;;;;;;;27.07;29.99;100846.91;5344853;32;44555;-67
2022/06/14 07:00:04;;;;;;;;;;;;;;;27.79;28.77;100848.44;5338300;32;35196;-66
2022/06/14 07:03:10;;;;;;;;;;;;;;;26.88;29.66;100850.56;5352475;32;34345;-70
2022/06/14 07:06:19;;;;;;;;;;;;;;;28.79;27.25;100844.09;5338413;32;35516;-66
2022/06/14 07:09:46;;;;;;;;;;;;;;;28.33;28.04;100846.34;5345668;32;43449;-69
2022/06/14 07:12:52;;;;;;;;;;;;;;;29.73;24.97;100840.03;5346730;32;35693;-68
2022/06/14 07:16:05;;;;;;;;;;;;;;;29.19;25.52;100845.16;5346547;32;34567;-69
2022/06/14 07:19:26;;;;;;;;;;;;;;;28.32;26.13;100840.09;5353092;32;33355;-68
2022/06/14 07:22:38;;;;;;;;;;;;;;;27.28;28.22;100847.41;5343742;32;44536;-67
2022/06/14 07:26:06;;;;;;;;;;;;;;;28.04;27.93;100847.56;5345329;32;34486;-68
2022/06/14 07:29:11;;;;;;;;;;;;;;;26.42;28.33;100849.75;5344115;32;31781;-72
2022/06/14 07:32:18;;;;;;;;;;;;;;;27.62;25.99;100849.31;5339601;32;34201;-66
2022/06/14 07:35:31;;;;;;;;;;;;;;;27.90;25.43;100847.31;5352569;32;45598;-66
2022/06/14 07:38:33;;;;;;;;;;;;;;;28.59;24.39;100848.94;5315547;32;324669;-71
2022/06/14 07:41:38;;;;;;;;;;;;;;;27.03;25.87;100854.41;5324793;32;34591;-71
2022/06/14 07:44:43;;;;;;;;;;;;;;;27.12;25.09;100858.06;5352059;32;34218;-72
2022/06/14 07:47:50;;;;;;;;;;;;;;;29.77;22.04;100841.38;5334163;32;34632;-76
2022/06/14 07:51:03;;;;;;;;;;;;;;;28.75;23.31;100850.84;5358706;32;34941;-67
2022/06/14 07:54:38;;;;;;;;;;;;;;;27.35;24.71;100853.00;5344175;32;44800;-78
2022/06/14 07:57:40;;;;;;;;;;;;;;;29.17;21.85;100858.00;5323456;32;34348;-70
2022/06/14 08:04:13;;;;;;;;;;;;;;;29.27;21.22;100847.84;5345660;32;44606;-68
2022/06/14 08:07:18;;;;;;;;;;;;;;;25.70;26.29;100848.62;5340822;32;35262;-66
2022/06/14 08:10:22;;;;;;;;;;;;;;;28.42;22.72;100847.22;5346671;32;34151;-67
2022/06/14 08:13:28;;;;;;;;;;;;;;;29.85;21.61;100844.06;5342159;32;34558;-66
2022/06/14 08:16:30;;;;;;;;;;;;;;;29.64;20.17;100856.31;5358142;32;44464;-71
2022/06/14 08:19:53;;;;;;;;;;;;;;;26.90;22.85;100856.66;5337996;32;34331;-72
2022/06/14 08:22:56;;;;;;;;;;;;;;;28.59;21.43;100855.19;5350766;32;34944;-73
2022/06/14 08:26:09;;;;;;;;;;;;;;;27.90;20.86;100850.03;5345554;32;45059;-73
2022/06/14 08:29:14;;;;;;;;;;;;;;;28.31;20.66;100835.69;5346100;32;35491;-67
2022/06/14 08:32:18;;;;;;;;;;;;;;;30.72;18.82;100844.84;5359711;32;34475;-68
2022/06/14 08:35:28;;;;;;;;;;;;;;;29.72;20.97;100846.47;5345436;32;35363;-72
2022/06/14 08:38:30;;;;;;;;;;;;;;;29.08;21.81;100865.28;5345232;32;44874;-67
2022/06/14 08:41:50;;;;;;;;;;;;;;;26.87;24.18;100859.66;5332791;32;34820;-66
2022/06/14 08:44:59;;;;;;;;;;;;;;;27.75;23.08;100847.06;5347541;32;35560;-71
2022/06/14 08:48:04;;;;;;;;;;;;;;;28.57;22.12;100849.12;5346173;32;44778;-66
2022/06/14 08:51:06;;;;;;;;;;;;;;;28.30;20.88;100844.78;5339111;32;37495;-68
2022/06/14 08:54:08;;;;;;;;;;;;;;;27.11;20.50;100856.34;5356633;32;35785;-67
2022/06/14 08:57:16;;;;;;;;;;;;;;;28.54;19.46;100849.47;5347104;32;36211;-66
2022/06/14 09:00:38;;;;;;;;;;;;;;;27.00;19.16;100850.19;5354738;32;34719;-67
2022/06/14 09:03:49;;;;;;;;;;;;;;;27.63;18.96;100848.31;5348551;32;34605;-73
2022/06/14 09:07:08;;;;;;;;;;;;;;;28.60;18.67;100850.66;5342208;32;35708;-65
2022/06/14 09:10:18;;;;;;;;;;;;;;;29.51;18.24;100844.28;5354864;32;35856;-77
2022/06/14 09:13:39;;;;;;;;;;;;;;;28.28;19.16;100856.78;5341004;32;34604;-66
2022/06/14 09:16:41;;;;;;;;;;;;;;;28.85;18.77;100855.09;5347380;32;34325;-74
2022/06/14 09:19:43;;;;;;;;;;;;;;;30.57;17.67;100838.47;5348941;32;35487;-74
2022/06/14 09:22:50;;;;;;;;;;;;;;;29.31;18.60;100838.38;5343340;32;34397;-66
2022/06/14 09:26:29;;;;;;;;;;;;;;;29.04;18.39;100845.81;5346701;32;36096;-74
2022/06/14 09:29:50;;;;;;;;;;;;;;;29.38;18.28;100844.81;5345181;32;44135;-75
2022/06/14 09:33:13;;;;;;;;;;;;;;;29.40;17.69;100848.19;5343562;32;34185;-68
2022/06/14 09:36:35;;;;;;;;;;;;;;;29.78;17.67;100840.34;5351895;32;34878;-67
2022/06/14 09:39:42;;;;;;;;;;;;;;;29.06;19.29;100842.97;5327447;32;36204;-69
2022/06/14 09:42:43;;;;;;;;;;;;;;;28.70;20.19;100850.50;5349896;32;35187;-71
2022/06/14 09:45:58;;;;;;;;;;;;;;;29.86;17.67;100838.44;5344136;32;34407;-69
2022/06/14 09:49:19;;;;;;;;;;;;;;;30.56;16.92;100839.50;5343830;32;44990;-69
2022/06/14 09:52:31;;;;;;;;;;;;;;;29.26;18.30;100851.59;5355492;32;34274;-68
2022/06/14 09:55:43;;;;;;;;;;;;;;;28.33;18.92;100849.88;5342929;32;44784;-73
2022/06/14 09:58:51;;;;;;;;;;;;;;;30.22;17.23;100831.75;5352325;32;35741;-71
2022/06/14 10:01:56;;;;;;;;;;;;;;;29.26;19.19;100835.34;5344457;32;34901;-73
2022/06/14 10:05:17;;;;;;;;;;;;;;;27.62;20.32;100838.50;5345450;32;45789;-68
2022/06/14 10:08:26;;;;;;;;;;;;;;;30.30;18.51;100827.13;5354802;32;34251;-68
2022/06/14 10:11:34;;;;;;;;;;;;;;;30.83;18.33;100822.72;5347380;32;48366;-78
2022/06/14 10:14:55;;;;;;;;;;;;;;;29.14;20.04;100835.69;5362144;32;35502;-67
2022/06/14 10:18:06;;;;;;;;;;;;;;;30.57;19.40;100817.63;5350933;32;43708;-67
2022/06/14 10:21:11;;;;;;;;;;;;;;;29.05;21.64;100823.19;5346835;32;34292;-68
2022/06/14 10:24:30;;;;;;;;;;;;;;;29.54;19.55;100827.72;5359155;32;36206;-70
2022/06/14 10:31:15;;;;;;;;;;;;;;;29.36;20.83;100814.34;5344885;32;35262;-67
2022/06/14 10:34:22;;;;;;;;;;;;;;;28.92;21.98;100822.84;5352421;32;35536;-81
2022/06/14 10:37:42;;;;;;;;;;;;;;;30.22;20.22;100815.47;5342292;32;34113;-67
2022/06/14 10:40:47;;;;;;;;;;;;;;;27.84;22.43;100816.41;5335564;32;36258;-71
2022/06/14 10:44:09;;;;;;;;;;;;;;;29.45;20.77;100807.91;5343563;32;35806;-69
2022/06/14 10:47:17;;;;;;;;;;;;;;;27.90;23.17;100810.34;5341428;32;35567;-67
2022/06/14 10:50:38;;;;;;;;;;;;;;;28.69;22.33;100810.94;5355725;32;35433;-69
2022/06/14 10:53:40;;;;;;;;;;;;;;;30.06;20.88;100803.66;5337977;32;34805;-72
2022/06/14 10:57:01;;;;;;;;;;;;;;;28.52;22.60;100815.47;5355945;32;34811;-68
2022/06/14 11:00:18;;;;;;;;;;;;;;;26.55;24.09;100819.75;5343832;32;44668;-68
2022/06/14 11:03:39;;;;;;;;;;;;;;;25.33;25.52;100818.97;5347223;32;34454;-68
2022/06/14 11:06:46;;;;;;;;;;;;;;;25.37;25.42;100815.84;5351984;32;34564;-72
2022/06/14 11:10:01;;;;;;;;;;;;;;;26.69;23.90;100797.66;5344886;32;34995;-69
2022/06/14 11:13:09;;;;;;;;;;;;;;;26.76;23.57;100790.63;5353696;32;44433;-72
2022/06/14 11:16:13;;;;;;;;;;;;;;;27.24;23.96;100795.63;5358810;32;37764;-72
2022/06/14 11:19:31;;;;;;;;;;;;;;;26.91;25.30;100805.25;5346053;32;35950;-72
2022/06/14 11:22:43;;;;;;;;;;;;;;;26.55;25.49;100806.28;5355463;32;44602;-70
2022/06/14 11:26:08;;;;;;;;;;;;;;;26.34;25.53;100802.00;5342415;32;34334;-73
2022/06/14 11:29:13;;;;;;;;;;;;;;;28.05;23.77;100799.78;5347862;32;34410;-73
2022/06/14 11:32:26;;;;;;;;;;;;;;;28.50;22.24;100802.13;5348998;32;34740;-68
2022/06/14 11:35:47;;;;;;;;;;;;;;;29.51;21.38;100785.59;5345841;32;44774;-67
2022/06/14 11:39:00;;;;;;;;;;;;;;;27.35;23.73;100801.72;5342019;32;35616;-68
2022/06/14 11:42:04;;;;;;;;;;;;;;;30.10;20.82;100796.91;5330209;32;44792;-68
2022/06/14 11:45:26;;;;;;;;;;;;;;;30.25;20.88;100794.25;5347648;32;35731;-67
2022/06/14 11:48:40;;;;;;;;;;;;;;;29.79;20.70;100794.13;5354764;32;44646;-66
2022/06/14 11:51:48;;;;;;;;;;;;;;;27.69;21.78;100772.94;5339392;32;34636;-69
2022/06/14 11:54:53;;;;;;;;;;;;;;;29.96;18.83;100780.50;5353529;32;34337;-68
2022/06/14 11:58:14;;;;;;;;;;;;;;;28.35;20.78;100798.38;5341782;32;34607;-67
2022/06/14 12:01:19;;;;;;;;;;;;;;;28.74;20.76;100798.63;5340973;32;35666;-72
2022/06/14 12:04:30;;;;;;;;;;;;;;;29.42;19.83;100795.53;5353399;32;36216;-74
2022/06/14 12:07:35;;;;;;;;;;;;;;;27.96;21.86;100807.00;5344442;32;45013;-70
2022/06/14 12:10:37;;;;;;;;;;;;;;;27.85;22.50;100799.19;5356408;32;35596;-70
2022/06/14 12:13:45;;;;;;;;;;;;;;;26.55;24.09;100790.94;5346271;32;34404;-68
2022/06/14 12:16:51;;;;;;;;;;;;;;;27.40;22.81;100802.97;5349634;32;34460;-73
2022/06/14 12:19:57;;;;;;;;;;;;;;;25.62;25.23;100791.97;5348218;32;34591;-68
2022/06/14 12:23:05;;;;;;;;;;;;;;;25.99;25.57;100796.50;5345048;32;44209;-69
2022/06/14 12:29:29;;;;;;;;;;;;;;;25.53;23.50;100796.37;5343265;32;44427;-73
2022/06/14 12:32:35;;;;;;;;;;;;;;;24.93;24.35;100798.47;5353270;32;34450;-72
2022/06/14 12:35:41;;;;;;;;;;;;;;;26.11;23.97;100798.00;5344953;32;37431;-72
2022/06/14 12:38:43;;;;;;;;;;;;;;;26.60;23.78;100791.34;5337249;32;34320;-71
2022/06/14 12:42:00;;;;;;;;;;;;;;;25.50;25.76;100793.13;5337249;32;36117;-71
2022/06/14 12:45:05;;;;;;;;;;;;;;;25.09;26.92;100790.69;5355386;32;46802;-76
2022/06/14 12:48:14;;;;;;;;;;;;;;;24.87;27.67;100796.34;5357225;32;34474;-75
2022/06/14 12:51:19;;;;;;;;;;;;;;;25.11;27.30;100793.22;5346379;32;34877;-76
2022/06/14 12:54:26;;;;;;;;;;;;;;;25.65;26.42;100787.13;5347530;32;34857;-82
2022/06/14 12:57:31;;;;;;;;;;;;;;;26.29;25.38;100768.41;5369170;32;44545;-72
2022/06/14 13:00:41;;;;;;;;;;;;;;;25.02;27.81;100783.31;5347699;32;34913;-66
2022/06/14 13:03:43;;;;;;;;;;;;;;;25.71;27.25;100790.25;5360619;32;34421;-66
2022/06/14 13:06:54;;;;;;;;;;;;;;;26.45;25.66;100788.31;5346609;32;35696;-65
2022/06/14 13:09:56;;;;;;;;;;;;;;;25.98;26.89;100778.66;5350322;32;35079;-69
2022/06/14 13:12:58;;;;;;;;;;;;;;;25.78;27.27;100769.84;5356255;32;44427;-73
2022/06/14 13:16:14;;;;;;;;;;;;;;;26.21;26.30;100758.38;5346716;32;35395;-63
2022/06/14 13:19:31;;;;;;;;;;;;;;;26.43;26.62;100770.59;5356392;32;34458;-65
2022/06/14 13:23:03;;;;;;;;;;;;;;;25.59;28.11;100779.66;5341050;32;44898;-67
2022/06/14 13:26:16;;;;;;;;;;;;;;;26.11;27.33;100773.78;5305464;32;45822;-66
2022/06/14 13:29:18;;;;;;;;;;;;;;;25.46;26.77;100783.69;5362443;32;35137;-67
2022/06/14 13:32:21;;;;;;;;;;;;;;;25.74;25.13;100753.13;5352498;32;35795;-67
2022/06/14 13:35:41;;;;;;;;;;;;;;;24.07;27.74;100773.16;5357788;32;34478;-73
2022/06/14 13:38:53;;;;;;;;;;;;;;;24.59;27.88;100755.03;5335011;32;35444;-78
2022/06/14 13:42:04;;;;;;;;;;;;;;;25.05;27.71;100754.34;5334555;32;34396;-80
2022/06/14 13:45:30;;;;;;;;;;;;;;;24.71;28.04;100758.44;5341865;32;42739;-70
2022/06/14 13:48:32;;;;;;;;;;;;;;;25.54;27.54;100755.03;5327357;32;44839;-69
2022/06/14 13:51:34;;;;;;;;;;;;;;;25.48;27.47;100739.47;5358023;32;35622;-86
2022/06/14 13:54:41;;;;;;;;;;;;;;;25.25;27.59;100749.75;5345474;32;34152;-85
2022/06/14 13:57:51;;;;;;;;;;;;;;;25.62;26.23;100740.81;5358870;32;36470;-86
2022/06/14 14:00:59;;;;;;;;;;;;;;;25.14;27.58;100743.69;5359575;32;35482;-70
2022/06/14 14:04:30;;;;;;;;;;;;;;;25.74;27.30;100728.06;5324528;32;44592;-83
2022/06/14 14:07:51;;;;;;;;;;;;;;;25.63;27.54;100750.59;5312759;32;44581;-83
2022/06/14 14:11:01;;;;;;;;;;;;;;;24.40;29.38;100757.69;5341270;32;35018;-69
2022/06/14 14:14:21;;;;;;;;;;;;;;;24.56;28.52;100742.72;5340136;32;44834;-70
2022/06/14 14:17:42;;;;;;;;;;;;;;;24.88;28.54;100741.59;5353849;32;34309;-70
2022/06/14 14:21:02;;;;;;;;;;;;;;;24.67;28.79;100743.59;5352286;32;34794;-82
2022/06/14 14:24:10;;;;;;;;;;;;;;;24.20;29.61;100746.91;5346066;32;46041;-83
2022/06/14 14:27:28;;;;;;;;;;;;;;;24.50;28.59;100734.41;5353184;32;35088;-70
2022/06/14 14:31:01;;;;;;;;;;;;;;;25.29;27.41;100729.63;5343752;32;34746;-69
2022/06/14 14:34:21;;;;;;;;;;;;;;;24.59;27.06;100736.22;5359515;32;44966;-77
2022/06/14 14:37:37;;;;;;;;;;;;;;;25.02;26.06;100724.16;5341868;32;36540;-76
2022/06/14 14:44:13;;;;;;;;;;;;;;;23.96;28.30;100746.47;5358792;32;34860;-72
2022/06/14 14:47:17;;;;;;;;;;;;;;;24.19;27.21;100745.22;5345429;32;35628;-83
2022/06/14 14:50:27;;;;;;;;;;;;;;;23.64;27.70;100736.75;5359768;32;35767;-70
2022/06/14 14:53:41;;;;;;;;;;;;;;;24.72;26.02;100727.88;5349252;32;45623;-69
2022/06/14 14:56:52;;;;;;;;;;;;;;;25.09;25.11;100714.53;5343583;32;36919;-82
2022/06/14 15:00:00;;;;;;;;;;;;;;;24.99;24.88;100713.66;5358957;32;34215;-71
2022/06/14 15:06:26;;;;;;;;;;;;;;;24.66;25.61;100723.06;5350428;32;35246;-84
2022/06/14 15:09:29;;;;;;;;;;;;;;;25.58;24.85;100720.59;5354938;32;45298;-69
2022/06/14 15:12:34;;;;;;;;;;;;;;;25.47;24.82;100712.72;5346693;32;33829;-78
2022/06/14 15:15:37;;;;;;;;;;;;;;;25.19;25.34;100710.00;5358832;32;34809;-83
2022/06/14 15:22:02;;;;;;;;;;;;;;;24.93;25.74;100703.53;5352855;32;44793;-84
2022/06/14 15:25:13;;;;;;;;;;;;;;;24.92;26.40;100694.56;5343745;32;34706;-71
2022/06/14 15:28:18;;;;;;;;;;;;;;;24.92;26.13;100712.56;5346158;32;34947;-71
2022/06/14 15:31:23;;;;;;;;;;;;;;;23.59;27.82;100720.16;5359546;32;33093;-71
2022/06/14 15:34:28;;;;;;;;;;;;;;;23.91;27.98;100711.97;5342658;32;35403;-70
2022/06/14 15:37:35;;;;;;;;;;;;;;;24.43;27.10;100709.09;5358804;32;44466;-70
2022/06/14 15:40:37;;;;;;;;;;;;;;;24.20;26.93;100712.00;5309185;32;35095;-77
2022/06/14 15:43:40;;;;;;;;;;;;;;;24.74;25.62;100701.72;5348298;32;34420;-70
2022/06/14 15:47:00;;;;;;;;;;;;;;;24.55;25.88;100707.94;5352618;32;35582;-70
2022/06/14 15:50:02;;;;;;;;;;;;;;;24.61;25.83;100706.53;5345700;32;47223;-85
2022/06/14 15:53:06;;;;;;;;;;;;;;;24.31;26.28;100708.34;5360679;32;35238;-76
2022/06/14 15:56:18;;;;;;;;;;;;;;;24.09;26.79;100711.28;5342677;32;34824;-70
2022/06/14 15:59:41;;;;;;;;;;;;;;;23.77;27.62;100713.22;5353548;32;36622;-84
2022/06/14 16:02:46;;;;;;;;;;;;;;;;;;5355548;32;34641;-75
2022/06/14 16:05:53;;;;;;;;;;;;;;;23.57;27.26;100702.50;5343363;32;35248;-82
2022/06/14 16:08:57;;;;;;;;;;;;;;;23.69;27.50;100699.59;5360673;32;34739;-70
2022/06/14 16:12:01;;;;;;;;;;;;;;;24.47;26.20;100691.66;5331814;32;44502;-86
2022/06/14 16:15:22;;;;;;;;;;;;;;;24.28;26.62;100704.09;5362074;32;34806;-69
2022/06/14 16:18:41;;;;;;;;;;;;;;;24.78;26.46;100689.66;5357440;32;34818;-83
2022/06/14 16:21:48;;;;;;;;;;;;;;;24.21;26.55;100710.16;5344995;32;34662;-81